Etusivu
METAR-TAF:

METAR-TAF

Lentoasemat :

Flemingsburg, Kentucky, Yhdysvallat

Leveyspiiri: 38-32-30N, Pituuspiiri: 083-44-36W, korkeus merenpinnasta: 278 m

Tämänhetkinen sää

Tämä raportti tehtiin 23 minuuttia sitten, kello 04.55 UTC
Tuuli 4 kn pohjoisesta/koillisesta
Lämpötila 15°C
Kosteus 63%
Ilmanpaine 1017 hPa
Näkyvyys: 16.1 km
Hajanaisia pilviä 8500 ft:n korkeudessa

METAR: KFGX 050455Z AUTO 02004KT 10SM SCT085 15/08 A3002 RMK AO2 T01470082

Aika: 01:18 (05:18 UTC)


TAF: puuttuu

Säähavainnot ja -ennusteet yli 4000 lentoasemalta (METAR- ja TAF-raportit).

Käytössä olevat sääasemat on merkitty karttaan keltaisilla ja punaisilla pisteillä.

Aseta hiiri pisteen päälle nähdäksesi sääaseman nimen.

Klikkaa sitten nähdäksesi säähavainnot ja -ennusteet.

Kartan vaihtaminen: klikkaa mustalla rastilla varustettuja vihreitä pisteitä, niin voit zoomata sisään; viivalla varustettua vihreää pistettä, niin voit zoomata ulos tai vihreitä nuolia, niin pääset viereisille kartoille.


METAR-TAF: